createdAt,value
2023-03-02T00:00:38.452Z,55.9
2023-03-02T00:01:38.414Z,55.9
2023-03-02T00:02:38.545Z,55.7
2023-03-02T00:03:38.497Z,55.6
2023-03-02T00:05:38.407Z,55.4
2023-03-02T00:06:38.416Z,55.4
2023-03-02T00:07:38.411Z,55.3
2023-03-02T00:08:38.411Z,55.5
2023-03-02T00:09:38.418Z,55.4
2023-03-02T00:10:38.417Z,55.5
2023-03-02T00:11:38.415Z,55.4
2023-03-02T00:12:38.412Z,55.9
2023-03-02T00:13:38.403Z,56.1
2023-03-02T00:14:38.438Z,56.1
2023-03-02T00:15:38.450Z,55.9
2023-03-02T00:16:38.413Z,56.2
2023-03-02T00:17:38.403Z,56.6
2023-03-02T00:18:38.419Z,56.6
2023-03-02T00:19:38.456Z,56.8
2023-03-02T00:20:38.443Z,56.6
2023-03-02T00:21:38.404Z,56.4
2023-03-02T00:22:38.410Z,56.5
2023-03-02T00:23:38.407Z,56.3
2023-03-02T00:25:38.410Z,57
2023-03-02T00:26:38.420Z,56.7
2023-03-02T00:27:38.416Z,56.9
2023-03-02T00:28:38.417Z,57.1
2023-03-02T00:29:38.399Z,57.3
2023-03-02T00:30:38.420Z,57.3
2023-03-02T00:31:38.541Z,57
2023-03-02T00:32:38.416Z,57
2023-03-02T00:33:38.416Z,57.2
2023-03-02T00:34:38.420Z,57
2023-03-02T00:35:38.469Z,57.2
2023-03-02T00:36:38.409Z,57.3
2023-03-02T00:37:38.402Z,57.4
2023-03-02T00:38:38.406Z,57.7
2023-03-02T00:39:38.408Z,57.8
2023-03-02T00:40:38.415Z,57.7
2023-03-02T00:41:38.419Z,57.3
2023-03-02T00:42:38.433Z,57.5
2023-03-02T00:43:38.412Z,57.6
2023-03-02T00:44:38.404Z,57.6
2023-03-02T00:45:38.410Z,57.4
2023-03-02T00:46:38.450Z,57.7
2023-03-02T00:48:38.413Z,57.9
2023-03-02T00:49:38.411Z,58.1
2023-03-02T00:50:38.415Z,57.8
2023-03-02T00:51:38.431Z,58.5
2023-03-02T00:52:38.402Z,57.8
2023-03-02T00:53:38.403Z,58.1
2023-03-02T00:54:38.406Z,58.1
2023-03-02T00:55:38.407Z,57.9
2023-03-02T00:56:38.434Z,57.7
2023-03-02T00:57:38.403Z,57.7
2023-03-02T00:58:38.410Z,57.7
2023-03-02T00:59:38.409Z,57.5
2023-03-02T01:00:38.413Z,57.7
2023-03-02T01:01:38.402Z,57.7
2023-03-02T01:02:38.581Z,57.8
2023-03-02T01:03:38.403Z,58
2023-03-02T01:04:38.424Z,58.4
2023-03-02T01:05:38.419Z,58
2023-03-02T01:06:38.410Z,58
2023-03-02T01:07:38.422Z,58
2023-03-02T01:08:38.420Z,57.9
2023-03-02T01:09:38.415Z,58
2023-03-02T01:10:38.414Z,58.5
2023-03-02T01:11:38.415Z,58.6
2023-03-02T01:12:38.402Z,59
2023-03-02T01:13:38.409Z,59.5
2023-03-02T01:14:38.414Z,59.4
2023-03-02T01:15:38.407Z,58.9
2023-03-02T01:16:38.533Z,58.6
2023-03-02T01:17:38.409Z,59
2023-03-02T01:18:38.409Z,59
2023-03-02T01:19:38.407Z,59
2023-03-02T01:20:38.406Z,58.7
2023-03-02T01:21:38.414Z,59.1
2023-03-02T01:22:38.433Z,58.9
2023-03-02T01:23:38.417Z,59.4
2023-03-02T01:24:38.411Z,59.6
2023-03-02T01:25:38.419Z,59.5
2023-03-02T01:26:38.420Z,59.4
2023-03-02T01:27:38.425Z,59.5
2023-03-02T01:28:38.434Z,59.1
2023-03-02T01:29:38.411Z,59.2
2023-03-02T01:30:38.417Z,58.8
2023-03-02T01:31:38.510Z,58.8
2023-03-02T01:32:38.457Z,58.9
2023-03-02T01:34:38.425Z,59.2
2023-03-02T01:35:38.490Z,59.4
2023-03-02T01:36:38.416Z,59
2023-03-02T01:37:38.426Z,58.8
2023-03-02T01:38:38.451Z,58.5
2023-03-02T01:39:38.446Z,59.1
2023-03-02T01:40:38.414Z,59.1
2023-03-02T01:41:38.411Z,59.7
2023-03-02T01:42:38.402Z,59.4
2023-03-02T01:43:38.409Z,59.4
2023-03-02T01:44:38.421Z,59.3
2023-03-02T01:45:38.509Z,59.3
2023-03-02T01:46:38.414Z,59.5
2023-03-02T01:47:38.492Z,59.6
2023-03-02T01:48:38.417Z,59.6
2023-03-02T01:49:38.431Z,59.4
2023-03-02T01:50:38.414Z,59.2
2023-03-02T01:51:38.409Z,59.5
2023-03-02T01:52:38.437Z,59.4
2023-03-02T01:53:38.448Z,59.9
2023-03-02T01:54:38.406Z,60.1
2023-03-02T01:55:38.405Z,59.9
2023-03-02T01:56:38.415Z,60.1
2023-03-02T01:57:38.419Z,60.1
2023-03-02T01:59:38.414Z,59.6
2023-03-02T02:00:38.492Z,59.6
2023-03-02T02:01:38.411Z,59.9
2023-03-02T02:02:38.437Z,60
2023-03-02T02:03:38.522Z,59.8
2023-03-02T02:04:38.414Z,59.7
2023-03-02T02:05:38.440Z,59.2
2023-03-02T02:06:38.418Z,59.1
2023-03-02T02:08:38.411Z,59.6
2023-03-02T02:09:38.413Z,60.1
2023-03-02T02:10:38.456Z,60.3
2023-03-02T02:11:38.416Z,60
2023-03-02T02:12:38.410Z,60
2023-03-02T02:13:38.424Z,59.9
2023-03-02T02:14:38.419Z,60.3
2023-03-02T02:15:38.413Z,60.4
2023-03-02T02:16:38.467Z,60.1
2023-03-02T02:17:38.409Z,60.4
2023-03-02T02:19:38.419Z,60.2
2023-03-02T02:20:38.426Z,59.9
2023-03-02T02:21:38.416Z,60.2
2023-03-02T02:22:38.405Z,60.3
2023-03-02T02:23:38.415Z,60.7
2023-03-02T02:24:38.442Z,60.4
2023-03-02T02:25:38.412Z,60.3
2023-03-02T02:26:38.410Z,60.1
2023-03-02T02:27:38.407Z,59.7
2023-03-02T02:28:38.429Z,59.8
2023-03-02T02:29:38.414Z,60.3
2023-03-02T02:30:38.409Z,60
2023-03-02T02:31:38.486Z,59.9
2023-03-02T02:32:38.442Z,60
2023-03-02T02:33:38.407Z,59.6
2023-03-02T02:34:38.423Z,59.7
2023-03-02T02:35:38.467Z,59.8
2023-03-02T02:36:38.414Z,59.4
2023-03-02T02:40:38.419Z,60.1
2023-03-02T02:44:38.404Z,59.7
2023-03-02T02:45:38.451Z,59.8
2023-03-02T02:46:38.419Z,59.6
2023-03-02T02:47:38.406Z,59.4
2023-03-02T02:48:38.405Z,59.6
2023-03-02T02:49:38.429Z,59.5
2023-03-02T02:50:38.432Z,59.6
2023-03-02T02:51:38.418Z,59.3
2023-03-02T02:52:38.398Z,59.2
2023-03-02T02:53:38.406Z,60
2023-03-02T02:54:38.426Z,59.7
2023-03-02T02:55:38.427Z,59.8
2023-03-02T02:56:38.409Z,60.1
2023-03-02T02:57:38.404Z,59.8
2023-03-02T02:59:38.408Z,59.8
2023-03-02T03:00:38.405Z,59.6
2023-03-02T03:01:38.442Z,59.5
2023-03-02T03:02:38.403Z,59.6
2023-03-02T03:03:38.447Z,60
2023-03-02T03:04:38.496Z,59.9
2023-03-02T03:05:38.429Z,59.6
2023-03-02T03:06:38.575Z,59.5
2023-03-02T03:08:38.403Z,59.6
2023-03-02T03:09:38.430Z,59.9
2023-03-02T03:10:38.404Z,59.4
2023-03-02T03:11:38.407Z,59.3
2023-03-02T03:12:38.410Z,59.5
2023-03-02T03:13:38.416Z,59.4
2023-03-02T03:14:38.408Z,59.2
2023-03-02T03:15:38.413Z,59.2
2023-03-02T03:16:38.464Z,59.1
2023-03-02T03:17:38.403Z,59.6
2023-03-02T03:18:38.409Z,59.5
2023-03-02T03:19:38.405Z,59.6
2023-03-02T03:20:38.407Z,59.5
2023-03-02T03:21:38.405Z,59.9
2023-03-02T03:22:38.410Z,59.8
2023-03-02T03:24:38.404Z,59.8
2023-03-02T03:25:39.059Z,59.5
2023-03-02T03:26:38.433Z,59.8
2023-03-02T03:27:38.397Z,60.3
2023-03-02T03:28:38.397Z,60.1
2023-03-02T03:29:38.398Z,60
2023-03-02T03:30:38.476Z,59.9
2023-03-02T03:31:38.412Z,60.4
2023-03-02T03:33:38.410Z,60.1
2023-03-02T03:34:38.406Z,59.6
2023-03-02T03:35:38.473Z,59.6
2023-03-02T03:36:38.416Z,60.3
2023-03-02T03:37:38.402Z,59.9
2023-03-02T03:38:38.397Z,60.3
2023-03-02T03:39:38.405Z,60.1
2023-03-02T03:40:38.403Z,60.6
2023-03-02T03:41:38.398Z,60
2023-03-02T03:42:38.427Z,60.7
2023-03-02T03:43:38.410Z,60.7
2023-03-02T03:44:38.396Z,60.2
2023-03-02T03:45:38.410Z,60.2
2023-03-02T03:46:38.398Z,60
2023-03-02T03:47:38.389Z,60
2023-03-02T03:48:38.396Z,60.3
2023-03-02T03:49:38.395Z,60.3
2023-03-02T03:50:38.400Z,60.7
2023-03-02T03:52:38.414Z,60.5
2023-03-02T03:53:38.396Z,60.4
2023-03-02T03:54:38.402Z,60.2
2023-03-02T03:55:38.399Z,60.2
2023-03-02T03:56:38.398Z,60
2023-03-02T03:57:38.428Z,59.9
2023-03-02T03:59:38.395Z,60.1
2023-03-02T04:00:38.430Z,60.2
2023-03-02T04:01:38.431Z,60.9
2023-03-02T04:02:38.517Z,60.8
2023-03-02T04:03:38.462Z,61.1
2023-03-02T04:04:38.407Z,60.9
2023-03-02T04:05:38.400Z,60.9
2023-03-02T04:06:38.391Z,60.6
2023-03-02T04:08:38.397Z,61
2023-03-02T04:09:38.400Z,60.9
2023-03-02T04:10:38.393Z,60.9
2023-03-02T04:11:38.405Z,60.5
2023-03-02T04:12:38.396Z,60.4
2023-03-02T04:14:38.401Z,60
2023-03-02T04:15:38.447Z,60
2023-03-02T04:16:38.394Z,59.4
2023-03-02T04:17:38.400Z,59.2
2023-03-02T04:18:38.396Z,59.3
2023-03-02T04:19:38.396Z,59.4
2023-03-02T04:20:38.422Z,59.2
2023-03-02T04:21:38.391Z,59.6
2023-03-02T04:22:38.395Z,59.6
2023-03-02T04:23:38.396Z,59.9
2023-03-02T04:24:38.407Z,59.9
2023-03-02T04:25:38.395Z,60
2023-03-02T04:26:38.402Z,59.7
2023-03-02T04:27:38.402Z,59.9
2023-03-02T04:28:38.469Z,59.9
2023-03-02T04:29:38.401Z,59.8
2023-03-02T04:30:38.396Z,59.6
2023-03-02T04:31:38.400Z,59.5
2023-03-02T04:32:38.410Z,59.7
2023-03-02T04:34:38.411Z,59.5
2023-03-02T04:35:38.534Z,59.5
2023-03-02T04:36:38.831Z,60.1
2023-03-02T04:37:38.514Z,59.9
2023-03-02T04:38:38.411Z,59.5
2023-03-02T04:39:38.419Z,59.6
2023-03-02T04:40:38.428Z,59.1
2023-03-02T04:41:38.404Z,59.2
2023-03-02T04:43:38.417Z,59.5
2023-03-02T04:44:38.417Z,59.2
2023-03-02T04:45:38.411Z,59.5
2023-03-02T04:46:38.519Z,59.5
2023-03-02T04:47:38.410Z,59.6
2023-03-02T04:48:38.406Z,59.4
2023-03-02T04:49:38.405Z,59.4
2023-03-02T04:50:38.488Z,59.8
2023-03-02T04:51:38.421Z,59.7
2023-03-02T04:52:38.414Z,59.7
2023-03-02T04:53:38.413Z,59.5
2023-03-02T04:54:38.419Z,59.6
2023-03-02T04:55:38.417Z,59.7
2023-03-02T04:56:38.424Z,59.4
2023-03-02T04:57:38.408Z,59
2023-03-02T04:59:38.450Z,59.2
2023-03-02T05:00:38.407Z,59
2023-03-02T05:01:38.408Z,58.7
2023-03-02T05:02:38.513Z,58.6
2023-03-02T05:04:38.467Z,58.4
2023-03-02T05:05:38.418Z,58.2
2023-03-02T05:06:38.559Z,58.9
2023-03-02T05:08:38.413Z,58.9
2023-03-02T05:09:38.414Z,59.1
2023-03-02T05:12:38.408Z,59.5
2023-03-02T05:14:38.424Z,59.3
2023-03-02T05:16:38.535Z,59.3
2023-03-02T05:18:38.411Z,60.1
2023-03-02T05:19:38.406Z,60.5
2023-03-02T05:21:38.406Z,60.2
2023-03-02T05:22:38.408Z,59.5
2023-03-02T05:23:38.413Z,59.3
2023-03-02T05:24:38.417Z,59.7
2023-03-02T05:25:38.423Z,60
2023-03-02T05:26:38.409Z,59.8
2023-03-02T05:27:38.418Z,59.7
2023-03-02T05:28:38.431Z,59.4
2023-03-02T05:29:38.520Z,59.9
2023-03-02T05:30:38.430Z,60.2
2023-03-02T05:31:38.509Z,60.3
2023-03-02T05:33:38.415Z,60.3
2023-03-02T05:34:38.401Z,60.8
2023-03-02T05:35:38.457Z,61.4
2023-03-02T05:36:38.416Z,61
2023-03-02T05:37:38.409Z,60.5
2023-03-02T05:39:38.418Z,60.8
2023-03-02T05:40:38.417Z,60.7
2023-03-02T05:41:38.413Z,60.7
2023-03-02T05:42:38.409Z,60.7
2023-03-02T05:43:38.412Z,60.6
2023-03-02T05:45:38.441Z,60.8
2023-03-02T05:46:38.526Z,61.1
2023-03-02T05:47:38.406Z,60.8
2023-03-02T05:48:38.414Z,60.6
2023-03-02T05:49:38.410Z,60.5
2023-03-02T05:50:38.413Z,60.5
2023-03-02T05:52:38.411Z,60.8
2023-03-02T05:53:38.421Z,60.7
2023-03-02T05:54:38.408Z,60.9
2023-03-02T05:55:38.406Z,60.8
2023-03-02T05:56:38.415Z,60.6
2023-03-02T05:57:38.403Z,61.2
2023-03-02T05:58:38.426Z,60.6
2023-03-02T05:59:38.408Z,60.7
2023-03-02T06:00:38.411Z,60.2
2023-03-02T06:01:38.466Z,59.9
2023-03-02T06:02:38.464Z,59.9
2023-03-02T06:03:38.403Z,60
2023-03-02T06:04:38.412Z,59.7
2023-03-02T06:05:38.421Z,59.6
2023-03-02T06:06:38.801Z,59.9
2023-03-02T06:07:38.413Z,59.3
2023-03-02T06:08:38.401Z,59.6
2023-03-02T06:09:38.409Z,60.1
2023-03-02T06:10:38.412Z,59.7
2023-03-02T06:11:38.400Z,59.5
2023-03-02T06:12:38.430Z,59.7
2023-03-02T06:17:38.432Z,59.7
2023-03-02T06:19:38.413Z,59.6
2023-03-02T06:20:38.417Z,59.2
2023-03-02T06:21:38.407Z,59.4
2023-03-02T06:22:38.410Z,59.4
2023-03-02T06:24:38.413Z,59.4
2023-03-02T06:25:38.406Z,59.2
2023-03-02T06:26:38.410Z,59.2
2023-03-02T06:27:38.421Z,60
2023-03-02T06:29:38.410Z,59.9
2023-03-02T06:30:38.462Z,59.9
2023-03-02T06:31:38.494Z,59.8
2023-03-02T06:32:38.577Z,59.9
2023-03-02T06:33:38.410Z,59.9
2023-03-02T06:34:38.430Z,59.9
2023-03-02T06:35:38.568Z,59.9
2023-03-02T06:36:38.498Z,59.8
2023-03-02T06:37:38.411Z,60.1
2023-03-02T06:38:38.408Z,59.9
2023-03-02T06:40:38.412Z,60.5
2023-03-02T06:42:38.409Z,60.3
2023-03-02T06:43:38.408Z,60.5
2023-03-02T06:44:38.403Z,60.4
2023-03-02T06:45:38.485Z,60.2
2023-03-02T06:47:38.406Z,56.9
2023-03-02T06:48:38.398Z,55.8
2023-03-02T06:49:38.409Z,55.7
2023-03-02T06:50:38.415Z,55.3
2023-03-02T06:51:38.400Z,54.5
2023-03-02T06:52:38.407Z,53.3
2023-03-02T06:53:38.405Z,53.4
2023-03-02T06:54:38.411Z,52.5
2023-03-02T06:56:40.718Z,50.6
2023-03-02T06:57:38.411Z,49.4
2023-03-02T06:58:38.402Z,48.3
2023-03-02T06:59:38.417Z,47.5
2023-03-02T07:00:38.413Z,46.5
2023-03-02T07:01:38.513Z,46
2023-03-02T07:02:38.430Z,44.9
2023-03-02T07:03:38.475Z,45.2
2023-03-02T07:04:38.419Z,46
2023-03-02T07:05:38.414Z,46.6
2023-03-02T07:06:38.509Z,49.1
2023-03-02T07:08:38.402Z,51.2
2023-03-02T07:09:38.424Z,52.2
2023-03-02T07:10:38.400Z,53.2
2023-03-02T07:12:38.406Z,54.4
2023-03-02T07:13:38.401Z,54.6
2023-03-02T07:14:38.405Z,54.9
2023-03-02T07:15:38.397Z,55.9
2023-03-02T07:16:38.513Z,56.1
2023-03-02T07:18:38.404Z,57.2
2023-03-02T07:19:40.774Z,57
2023-03-02T07:20:38.401Z,57.7
2023-03-02T07:21:38.398Z,58.3
2023-03-02T07:22:38.407Z,58.5
2023-03-02T07:23:38.400Z,58
2023-03-02T07:24:38.403Z,57.8
2023-03-02T07:25:38.405Z,58.5
2023-03-02T07:26:38.395Z,57.9
2023-03-02T07:27:38.406Z,57.8
2023-03-02T07:28:38.407Z,58.1
2023-03-02T07:29:38.405Z,58.4
2023-03-02T07:31:38.405Z,58
2023-03-02T07:32:38.438Z,58.1
2023-03-02T07:33:38.404Z,57.3
2023-03-02T07:34:38.421Z,57.4
2023-03-02T07:36:38.410Z,56.9
2023-03-02T07:37:38.406Z,56.5
2023-03-02T07:38:38.410Z,56.6
2023-03-02T07:39:38.396Z,56.3
2023-03-02T07:41:38.407Z,56.4
2023-03-02T07:42:38.420Z,56.1
2023-03-02T07:43:38.401Z,56.1
2023-03-02T07:44:38.440Z,55.7
2023-03-02T07:45:38.420Z,55.4
2023-03-02T07:46:38.505Z,55.6
2023-03-02T07:47:38.397Z,55.5
2023-03-02T07:51:38.409Z,54.6
2023-03-02T07:52:38.408Z,55
2023-03-02T07:53:38.402Z,54.5
2023-03-02T07:54:38.412Z,54.2
2023-03-02T07:55:38.401Z,54.2
2023-03-02T07:56:38.407Z,54.5
2023-03-02T07:57:38.417Z,54.7
2023-03-02T07:58:38.443Z,54.9
2023-03-02T07:59:38.409Z,54.2
2023-03-02T08:00:38.412Z,54.1
2023-03-02T08:01:38.437Z,54.2
2023-03-02T08:02:38.479Z,54.5
2023-03-02T08:03:38.404Z,53.9
2023-03-02T08:04:38.417Z,54.2
2023-03-02T08:05:38.445Z,53.2
2023-03-02T08:06:39.237Z,53.3
2023-03-02T08:07:38.413Z,53.1
2023-03-02T08:08:38.421Z,53.3
2023-03-02T08:09:38.403Z,53.3
2023-03-02T08:11:38.410Z,52.2
2023-03-02T08:12:38.403Z,52
2023-03-02T08:13:38.402Z,52.3
2023-03-02T08:14:38.408Z,51
2023-03-02T08:15:38.406Z,50.8
2023-03-02T08:16:38.488Z,51
2023-03-02T08:17:38.406Z,50.4
2023-03-02T08:18:38.406Z,50.7
2023-03-02T08:21:38.487Z,50.3
2023-03-02T08:22:38.405Z,50.3
2023-03-02T08:23:38.481Z,50.3
2023-03-02T08:24:38.405Z,50.2
2023-03-02T08:28:38.409Z,49.6
2023-03-02T08:29:38.410Z,49.3
2023-03-02T08:30:38.400Z,48.9
2023-03-02T08:31:38.509Z,49.6
2023-03-02T08:32:38.471Z,49.1
2023-03-02T08:33:38.425Z,49.1
2023-03-02T08:34:38.410Z,49.2
2023-03-02T08:35:38.449Z,49.3
2023-03-02T08:36:38.432Z,48.8
2023-03-02T08:37:38.415Z,48.9
2023-03-02T08:38:38.410Z,48.9
2023-03-02T08:39:38.413Z,47.7
2023-03-02T08:40:38.401Z,48.4
2023-03-02T08:42:38.414Z,47.5
2023-03-02T08:43:38.410Z,48.1
2023-03-02T08:44:38.408Z,47.7
2023-03-02T08:45:38.505Z,47
2023-03-02T08:47:38.428Z,47.2
2023-03-02T08:48:38.405Z,46.8
2023-03-02T08:49:38.415Z,45.7
2023-03-02T08:51:38.404Z,46.3
2023-03-02T08:52:38.407Z,45.7
2023-03-02T08:53:38.414Z,46.4
2023-03-02T08:54:38.440Z,45.6
2023-03-02T08:55:38.402Z,45.4
2023-03-02T08:56:38.402Z,45.4
2023-03-02T08:58:38.401Z,45.2
2023-03-02T08:59:38.408Z,44.6
2023-03-02T09:00:38.394Z,43.9
2023-03-02T09:01:38.694Z,44.5
2023-03-02T09:02:38.402Z,43.6
2023-03-02T09:03:38.400Z,44.1
2023-03-02T09:04:38.505Z,45
2023-03-02T09:05:38.407Z,43
2023-03-02T09:06:38.404Z,43.1
2023-03-02T09:07:38.524Z,42.4
2023-03-02T09:08:38.415Z,42.5
2023-03-02T09:09:38.411Z,42.4
2023-03-02T09:10:38.401Z,41.4
2023-03-02T09:11:38.405Z,41.4
2023-03-02T09:12:38.401Z,41.1
2023-03-02T09:13:38.415Z,41.6
2023-03-02T09:14:38.401Z,40.9
2023-03-02T09:15:38.402Z,41.3
2023-03-02T09:22:38.400Z,42.2
2023-03-02T09:23:38.397Z,42.2
2023-03-02T09:24:38.414Z,42
2023-03-02T09:25:38.400Z,41.5
2023-03-02T09:26:38.408Z,41.5
2023-03-02T09:27:38.399Z,42.3
2023-03-02T09:32:38.590Z,42
2023-03-02T09:33:38.404Z,41.7
2023-03-02T09:34:38.407Z,41
2023-03-02T09:35:38.403Z,40.9
2023-03-02T09:36:38.411Z,40.6
2023-03-02T09:44:38.406Z,40.9
2023-03-02T09:46:38.402Z,41.2
2023-03-02T09:48:38.407Z,41.6
2023-03-02T09:50:38.409Z,41.3
2023-03-02T09:57:38.414Z,41.6
2023-03-02T09:59:38.438Z,42.2
2023-03-02T10:01:38.400Z,41.6
2023-03-02T10:03:38.506Z,41.2
2023-03-02T10:06:38.403Z,41.4
2023-03-02T10:07:38.417Z,41
2023-03-02T10:08:38.408Z,40.7
2023-03-02T10:10:38.411Z,40.7
2023-03-02T10:12:39.070Z,40.9
2023-03-02T10:13:38.409Z,40.6
2023-03-02T10:16:38.538Z,40
2023-03-02T10:20:38.399Z,40
2023-03-02T10:30:38.490Z,39.9
2023-03-02T10:32:38.517Z,39.8
2023-03-02T10:36:38.434Z,39.9
2023-03-02T10:42:38.410Z,40.1
2023-03-02T11:20:38.415Z,37.4
2023-03-02T12:01:38.438Z,34.4
2023-03-02T12:20:38.417Z,34.4
2023-03-02T13:01:38.424Z,35.6
2023-03-02T13:03:38.477Z,35.5
2023-03-02T13:05:38.435Z,35.8
2023-03-02T13:06:38.430Z,35.6
2023-03-02T13:10:38.517Z,35.4
2023-03-02T13:43:38.442Z,37.8
2023-03-02T13:46:41.689Z,38.6
2023-03-02T14:14:38.470Z,38.9
2023-03-02T15:19:38.470Z,40
2023-03-02T15:20:38.449Z,40.1
2023-03-02T15:21:38.479Z,40.3
2023-03-02T15:22:38.445Z,40.3
2023-03-02T15:29:38.775Z,41.1
2023-03-02T15:34:38.474Z,40.5
2023-03-02T15:37:38.443Z,40.7
2023-03-02T15:38:38.445Z,40.8
2023-03-02T15:42:38.443Z,41.7
2023-03-02T15:43:38.440Z,42.2
2023-03-02T15:58:38.443Z,42.8
2023-03-02T16:02:38.502Z,42.7
2023-03-02T16:43:38.463Z,44.4
2023-03-02T16:44:38.460Z,44.4
2023-03-02T16:51:38.461Z,44.7
2023-03-02T17:51:38.468Z,61.6
2023-03-02T18:26:38.467Z,65.6
2023-03-02T18:28:38.456Z,66.6
2023-03-02T18:51:38.453Z,70.1
2023-03-02T20:01:38.516Z,81.9
2023-03-02T20:26:38.462Z,86.2
2023-03-02T20:28:38.469Z,86.7
2023-03-02T21:43:38.792Z,96.7
2023-03-02T21:50:38.462Z,98.7
2023-03-02T22:18:39.115Z,99.7
2023-03-02T22:31:38.491Z,100
2023-03-02T22:37:38.464Z,100
2023-03-02T22:39:41.000Z,100
